EST,Max TemperatureF,Mean TemperatureF,Min TemperatureF,Max Dew PointF,MeanDew PointF,Min DewpointF,Max Humidity, Mean Humidity, Min Humidity, Max Sea Level PressureIn, Mean Sea Level PressureIn, Min Sea Level PressureIn, Max VisibilityMiles, Mean VisibilityMiles, Min VisibilityMiles, Max Wind SpeedMPH, Mean Wind SpeedMPH, Max Gust SpeedMPH,PrecipitationIn, CloudCover, Events, WindDirDegrees
2012-12-1,69,54,38,45,41,34,88,69,40,30.40,30.35,30.32,10,10,10,6,1,,0.00,2,,75
2012-12-2,72,58,45,53,50,41,94,83,49,30.39,30.30,30.26,10,6,0,10,2,,0.00,3,Fog,214
2012-12-3,75,60,46,62,48,45,100,91,35,30.33,30.29,30.23,10,3,0,9,1,,0.00,1,Fog,228
2012-12-4,73,60,46,63,50,46,100,92,42,30.34,30.28,30.22,10,3,0,10,1,,0.00,2,Fog,230
2012-12-5,73,62,51,55,53,45,100,83,43,30.22,30.18,30.09,10,6,0,15,4,,0.00,4,Fog,213
2012-12-6,57,52,48,51,42,32,83,66,44,30.24,30.18,30.15,10,10,10,15,11,,0.00,7,,56
2012-12-7,59,54,48,47,41,32,90,64,50,30.16,30.07,30.00,10,10,10,10,7,,0.00,7,,15
2012-12-8,70,59,48,55,50,46,100,96,47,30.09,30.04,30.00,10,2,0,7,4,,0.00,5,Fog,276
2012-12-9,74,61,48,64,56,47,100,90,55,30.14,30.09,29.99,10,6,0,10,1,,0.00,6,Fog,183
2012-12-10,73,66,58,63,58,52,100,89,49,29.98,29.88,29.75,10,7,1,18,3,,0.00,4,,199
2012-12-11,65,60,55,56,49,37,90,66,47,30.09,29.93,29.76,10,10,10,10,5,,0.00,7,,233
2012-12-12,54,48,41,43,39,32,87,75,47,30.24,30.19,30.09,10,8,4,18,11,23,0.31,7,Rain,39
2012-12-13,52,46,39,37,36,32,87,74,54,30.35,30.30,30.20,10,8,2,16,13,23,0.03,5,Rain,23
2012-12-14,58,46,34,33,30,25,79,58,29,30.38,30.29,30.22,10,10,10,7,4,,0.00,0,,34
2012-12-15,61,48,36,46,38,29,80,62,43,30.25,30.16,30.09,10,10,10,8,2,,0.00,6,,72
2012-12-16,64,58,51,63,55,46,100,95,71,30.09,30.01,29.88,10,4,0,7,2,,0.05,8,Fog-Rain,153
2012-12-17,62,58,55,63,58,55,100,99,88,29.89,29.83,29.73,10,6,0,14,7,,0.44,8,Fog-Rain,241
2012-12-18,63,52,41,57,46,30,96,73,35,29.97,29.80,29.73,10,10,10,16,10,25,0.00,3,,241
2012-12-19,70,53,36,41,34,28,81,53,25,30.11,30.04,29.98,10,10,6,10,6,,0.00,0,,238
2012-12-20,70,54,37,61,50,34,94,74,40,30.11,29.76,29.61,10,10,3,23,10,37,0.34,6,Rain,196
2012-12-21,49,44,37,28,21,17,51,41,28,29.95,29.82,29.74,10,10,10,28,19,41,0.09,0,,262
2012-12-22,56,44,31,24,13,4,56,34,12,30.16,30.09,29.96,10,10,10,13,8,,0.00,0,,257
2012-12-23,57,42,28,26,21,15,73,43,20,30.20,30.12,30.07,10,10,10,12,3,,0.00,2,,206
2012-12-24,54,47,40,49,39,26,94,72,38,30.07,29.97,29.92,10,10,5,20,6,26,0.28,7,Rain,209
2012-12-25,55,52,50,52,49,46,100,92,71,30.09,30.00,29.94,10,9,4,9,4,,0.15,8,Rain,41
2012-12-26,67,54,39,63,53,27,100,89,38,29.93,29.67,29.49,10,8,2,26,11,38,0.33,7,Rain-Thunderstorm,136
2012-12-27,54,44,34,32,28,26,79,57,33,30.06,29.95,29.78,10,10,10,13,8,18,0.00,0,,263
2012-12-28,48,39,30,35,29,26,81,66,46,30.17,30.08,29.94,10,10,10,6,4,,0.00,3,,64
2012-12-29,55,48,39,45,39,27,93,83,48,30.05,29.81,29.73,10,7,2,21,8,25,0.67,7,Rain,351
2012-12-30,49,39,29,26,19,12,75,49,22,30.42,30.31,30.07,10,10,10,8,5,,0.00,0,,298
2012-12-31,57,42,27,40,29,20,78,56,28,30.42,30.31,30.17,10,10,10,13,4,,0.00,4,,208